createdAt,value
2022-09-12T00:02:04.440Z,15.23
2022-09-12T00:04:31.991Z,15.27
2022-09-12T00:06:59.285Z,15.38
2022-09-12T00:09:26.699Z,15.43
2022-09-12T00:11:54.384Z,15.53
2022-09-12T00:14:21.748Z,15.65
2022-09-12T00:16:49.211Z,15.78
2022-09-12T00:19:16.634Z,15.78
2022-09-12T00:21:43.966Z,15.87
2022-09-12T00:24:11.734Z,15.95
2022-09-12T00:26:39.226Z,15.95
2022-09-12T00:29:06.667Z,15.92
2022-09-12T00:31:34.197Z,15.95
2022-09-12T00:34:01.729Z,16.06
2022-09-12T00:36:29.588Z,16.06
2022-09-12T00:38:57.028Z,16.08
2022-09-12T00:41:26.355Z,16.09
2022-09-12T00:43:59.296Z,16.13
2022-09-12T00:46:38.215Z,16.06
2022-09-12T00:49:19.445Z,15.88
2022-09-12T00:51:55.987Z,15.71
2022-09-12T00:54:26.348Z,15.58
2022-09-12T00:56:55.215Z,15.48
2022-09-12T00:59:25.461Z,15.46
2022-09-12T01:01:52.916Z,15.50
2022-09-12T01:04:21.517Z,15.50
2022-09-12T01:06:48.944Z,15.48
2022-09-12T01:09:18.295Z,15.48
2022-09-12T01:11:47.102Z,15.55
2022-09-12T01:14:15.183Z,15.58
2022-09-12T01:16:42.578Z,15.61
2022-09-12T01:19:40.906Z,15.74
2022-09-12T01:22:35.847Z,15.88
2022-09-12T01:25:18.347Z,16.02
2022-09-12T01:28:27.816Z,16.05
2022-09-12T01:31:07.209Z,16.13
2022-09-12T01:34:15.886Z,16.05
2022-09-12T01:36:51.296Z,15.97
2022-09-12T01:39:24.627Z,15.72
2022-09-12T01:42:13.846Z,15.65
2022-09-12T01:44:56.260Z,15.61
2022-09-12T01:47:34.300Z,15.60
2022-09-12T01:50:18.850Z,15.60
2022-09-12T01:53:00.208Z,15.68
2022-09-12T01:55:33.888Z,15.89
2022-09-12T01:58:04.773Z,15.91
2022-09-12T02:00:34.924Z,15.81
2022-09-12T02:03:12.733Z,15.77
2022-09-12T02:05:49.291Z,15.69
2022-09-12T02:08:23.214Z,15.79
2022-09-12T02:10:56.703Z,15.77
2022-09-12T02:13:27.516Z,15.75
2022-09-12T02:15:58.400Z,15.79
2022-09-12T02:18:26.047Z,15.94
2022-09-12T02:20:53.329Z,15.84
2022-09-12T02:23:22.833Z,15.58
2022-09-12T02:25:52.906Z,15.46
2022-09-12T02:28:24.084Z,15.40
2022-09-12T02:30:58.270Z,15.34
2022-09-12T02:33:33.352Z,15.23
2022-09-12T02:36:15.544Z,15.14
2022-09-12T02:38:46.490Z,15.11
2022-09-12T02:41:15.038Z,15.03
2022-09-12T02:43:42.374Z,14.92
2022-09-12T02:46:12.576Z,14.88
2022-09-12T02:48:41.641Z,14.89
2022-09-12T02:51:09.437Z,14.99
2022-09-12T02:53:36.795Z,15.03
2022-09-12T02:56:05.893Z,15.17
2022-09-12T02:58:33.233Z,15.09
2022-09-12T03:01:07.873Z,15.06
2022-09-12T03:03:47.563Z,15.06
2022-09-12T03:06:33.444Z,15.10
2022-09-12T03:09:37.855Z,14.90
2022-09-12T03:12:14.097Z,14.92
2022-09-12T03:15:03.976Z,15.06
2022-09-12T03:18:00.634Z,15.17
2022-09-12T03:20:40.123Z,15.31
2022-09-12T03:23:19.594Z,15.30
2022-09-12T03:25:54.271Z,15.30
2022-09-12T03:28:21.549Z,15.40
2022-09-12T03:30:49.352Z,15.47
2022-09-12T03:33:21.502Z,15.58
2022-09-12T03:35:48.906Z,15.58
2022-09-12T03:38:16.437Z,15.65
2022-09-12T03:40:43.736Z,15.75
2022-09-12T03:43:11.118Z,15.68
2022-09-12T03:45:38.481Z,15.72
2022-09-12T03:48:06.310Z,15.69
2022-09-12T03:50:34.075Z,15.47
2022-09-12T03:53:02.240Z,15.27
2022-09-12T03:55:29.569Z,15.19
2022-09-12T03:57:56.900Z,15.30
2022-09-12T04:00:24.332Z,15.26
2022-09-12T04:02:57.958Z,15.34
2022-09-12T04:05:25.369Z,15.43
2022-09-12T04:07:52.787Z,15.50
2022-09-12T04:10:20.113Z,15.51
2022-09-12T04:12:47.450Z,15.50
2022-09-12T04:15:14.784Z,15.37
2022-09-12T04:17:42.100Z,15.24
2022-09-12T04:20:09.494Z,15.19
2022-09-12T04:22:36.764Z,15.16
2022-09-12T04:25:04.231Z,15.17
2022-09-12T04:27:31.498Z,15.13
2022-09-12T04:29:58.924Z,15.07
2022-09-12T04:32:26.118Z,14.96
2022-09-12T04:34:53.434Z,14.92
2022-09-12T04:37:21.353Z,14.95
2022-09-12T04:39:49.649Z,14.93
2022-09-12T04:42:17.284Z,14.83
2022-09-12T04:44:44.596Z,14.76
2022-09-12T04:47:12.069Z,14.73
2022-09-12T04:49:39.569Z,14.76
2022-09-12T04:52:08.384Z,14.88
2022-09-12T04:54:36.107Z,15.14
2022-09-12T04:57:03.659Z,15.33
2022-09-12T04:59:35.237Z,15.47
2022-09-12T05:02:03.670Z,15.27
2022-09-12T05:04:32.676Z,15.20
2022-09-12T05:07:00.241Z,15.26
2022-09-12T05:09:28.474Z,15.24
2022-09-12T05:12:05.058Z,15.29
2022-09-12T05:14:33.702Z,15.55
2022-09-12T05:17:01.998Z,15.72
2022-09-12T05:19:30.440Z,15.75
2022-09-12T05:21:59.528Z,15.71
2022-09-12T05:24:27.453Z,15.57
2022-09-12T05:26:55.701Z,15.61
2022-09-12T05:29:25.283Z,15.60
2022-09-12T05:31:53.489Z,15.75
2022-09-12T05:34:21.475Z,15.84
2022-09-12T05:36:49.369Z,15.78
2022-09-12T05:39:17.000Z,15.72
2022-09-12T05:41:45.122Z,15.65
2022-09-12T05:44:12.940Z,15.71
2022-09-12T05:46:42.444Z,15.88
2022-09-12T05:49:12.774Z,15.94
2022-09-12T05:51:41.944Z,15.98
2022-09-12T05:54:10.417Z,16.10
2022-09-12T05:56:39.823Z,16.13
2022-09-12T05:59:12.365Z,16.32
2022-09-12T06:01:40.120Z,16.39
2022-09-12T06:04:10.839Z,16.33
2022-09-12T06:06:42.560Z,16.42
2022-09-12T06:09:10.914Z,16.55
2022-09-12T06:11:40.942Z,16.68
2022-09-12T06:14:08.926Z,16.71
2022-09-12T06:16:37.584Z,16.88
2022-09-12T06:19:07.422Z,16.91
2022-09-12T06:21:35.667Z,17.05
2022-09-12T06:24:03.186Z,17.29
2022-09-12T06:26:30.809Z,17.38
2022-09-12T06:28:59.798Z,17.46
2022-09-12T06:31:31.947Z,17.62
2022-09-12T06:34:04.071Z,17.76
2022-09-12T06:36:33.157Z,17.77
2022-09-12T06:39:02.144Z,17.97
2022-09-12T06:41:29.898Z,18.10
2022-09-12T06:43:57.634Z,18.27
2022-09-12T06:46:25.267Z,18.35
2022-09-12T06:48:52.800Z,18.62
2022-09-12T06:51:21.754Z,20.94
2022-09-12T06:53:49.312Z,22.89
2022-09-12T06:56:19.337Z,23.84
2022-09-12T06:58:48.397Z,24.63
2022-09-12T07:01:20.952Z,25.58
2022-09-12T07:03:53.541Z,26.14
2022-09-12T07:06:22.399Z,26.69
2022-09-12T07:08:51.602Z,26.99
2022-09-12T07:11:34.415Z,26.75
2022-09-12T07:14:07.053Z,26.91
2022-09-12T07:16:37.954Z,27.04
2022-09-12T07:19:07.375Z,26.99
2022-09-12T07:21:40.321Z,27.36
2022-09-12T07:24:13.169Z,27.43
2022-09-12T07:26:40.763Z,25.89
2022-09-12T07:29:35.273Z,27.04
2022-09-12T07:31:58.299Z,27.60
2022-09-12T07:34:26.654Z,27.65
2022-09-12T07:36:55.235Z,27.06
2022-09-12T07:39:22.730Z,28.02
2022-09-12T07:41:51.562Z,27.94
2022-09-12T07:44:19.655Z,26.56
2022-09-12T07:46:54.825Z,25.10
2022-09-12T07:49:22.756Z,25.97
2022-09-12T07:51:50.847Z,26.18
2022-09-12T07:54:18.540Z,26.30
2022-09-12T07:56:46.387Z,27.61
2022-09-12T07:59:21.543Z,27.89
2022-09-12T08:01:57.883Z,28.64
2022-09-12T08:04:25.748Z,27.97
2022-09-12T08:06:53.614Z,27.92
2022-09-12T08:09:21.734Z,28.13
2022-09-12T08:11:50.241Z,27.36
2022-09-12T08:14:18.556Z,26.51
2022-09-12T08:16:48.473Z,26.45
2022-09-12T08:19:15.903Z,26.27
2022-09-12T08:21:43.267Z,27.00
2022-09-12T08:24:11.717Z,27.22
2022-09-12T08:26:39.083Z,26.83
2022-09-12T08:29:06.458Z,27.50
2022-09-12T08:31:36.836Z,27.30
2022-09-12T08:34:05.632Z,26.16
2022-09-12T08:36:33.533Z,25.12
2022-09-12T08:39:02.631Z,24.95
2022-09-12T08:41:32.732Z,24.39
2022-09-12T08:44:19.264Z,23.62
2022-09-12T08:47:09.265Z,23.47
2022-09-12T08:49:42.351Z,23.28
2022-09-12T08:52:32.705Z,23.54
2022-09-12T08:55:01.956Z,23.74
2022-09-12T08:57:29.690Z,23.60
2022-09-12T08:59:57.286Z,23.28
2022-09-12T09:02:49.413Z,23.07
2022-09-12T09:05:22.745Z,23.09
2022-09-12T09:08:32.526Z,22.96
2022-09-12T09:11:46.700Z,23.04
2022-09-12T09:14:50.573Z,22.93
2022-09-12T09:17:55.628Z,22.89
2022-09-12T09:20:49.705Z,22.85
2022-09-12T09:23:34.099Z,22.79
2022-09-12T09:26:14.919Z,23.00
2022-09-12T09:28:53.358Z,22.72
2022-09-12T09:31:25.530Z,22.62
2022-09-12T09:33:55.558Z,22.59
2022-09-12T09:36:44.201Z,22.40
2022-09-12T09:39:29.549Z,22.25
2022-09-12T09:42:16.343Z,22.20
2022-09-12T09:44:47.027Z,22.10
2022-09-12T09:47:15.354Z,21.82
2022-09-12T09:49:43.321Z,21.73
2022-09-12T09:52:12.224Z,21.76
2022-09-12T09:54:44.544Z,21.80
2022-09-12T09:57:53.396Z,21.50
2022-09-12T10:00:42.366Z,21.53
2022-09-12T10:03:15.462Z,21.80
2022-09-12T10:05:51.681Z,21.98
2022-09-12T10:08:26.874Z,22.14
2022-09-12T10:11:08.910Z,22.44
2022-09-12T10:13:43.667Z,22.62
2022-09-12T10:16:54.595Z,22.51
2022-09-12T10:19:27.905Z,22.41
2022-09-12T10:21:56.849Z,22.37
2022-09-12T10:24:31.369Z,22.14
2022-09-12T10:27:20.697Z,22.01
2022-09-12T10:29:50.397Z,21.83
2022-09-12T10:32:31.274Z,21.77
2022-09-12T10:35:03.302Z,21.63
2022-09-12T10:37:36.008Z,21.56
2022-09-12T10:40:05.653Z,21.59
2022-09-12T10:42:49.994Z,21.56
2022-09-12T10:45:25.465Z,21.86
2022-09-12T10:47:53.973Z,21.82
2022-09-12T10:50:23.062Z,21.97
2022-09-12T10:52:51.753Z,21.93
2022-09-12T10:55:21.466Z,21.67
2022-09-12T10:58:14.471Z,21.82
2022-09-12T11:00:49.476Z,21.83
2022-09-12T11:03:25.437Z,22.05
2022-09-12T11:05:58.288Z,22.10
2022-09-12T11:08:54.205Z,22.28
2022-09-12T11:11:57.392Z,22.77
2022-09-12T11:14:27.764Z,22.98
2022-09-12T11:17:18.819Z,22.89
2022-09-12T11:20:04.587Z,22.77
2022-09-12T11:22:37.069Z,22.63
2022-09-12T11:25:42.528Z,22.54
2022-09-12T11:28:26.120Z,22.34
2022-09-12T11:31:05.811Z,22.18
2022-09-12T11:33:43.569Z,22.30
2022-09-12T11:36:32.385Z,22.27
2022-09-12T11:39:16.740Z,22.17
2022-09-12T11:41:48.605Z,22.24
2022-09-12T11:44:18.470Z,22.13
2022-09-12T11:46:51.745Z,22.03
2022-09-12T11:49:42.766Z,22.08
2022-09-12T11:52:20.515Z,22.17
2022-09-12T11:54:58.627Z,21.97
2022-09-12T11:57:44.577Z,21.90
2022-09-12T12:00:18.475Z,21.94
2022-09-12T12:03:18.671Z,22.08
2022-09-12T12:05:55.405Z,22.17
2022-09-12T12:08:23.746Z,21.98
2022-09-12T12:11:02.171Z,21.89
2022-09-12T12:13:32.356Z,21.98
2022-09-12T12:16:04.313Z,22.03
2022-09-12T12:18:32.857Z,22.03
2022-09-12T12:21:32.228Z,22.04
2022-09-12T12:24:09.044Z,21.77
2022-09-12T12:26:39.792Z,21.87
2022-09-12T12:29:21.827Z,22.07
2022-09-12T12:32:04.352Z,22.47
2022-09-12T12:34:42.508Z,23.14
2022-09-12T12:37:19.132Z,23.65
2022-09-12T12:39:54.066Z,23.95
2022-09-12T12:42:54.415Z,23.99
2022-09-12T12:45:27.948Z,23.44
2022-09-12T12:48:14.907Z,22.95
2022-09-12T12:50:43.224Z,22.73
2022-09-12T12:53:24.959Z,22.49
2022-09-12T12:55:53.147Z,22.41
2022-09-12T12:58:36.581Z,22.28
2022-09-12T13:01:10.168Z,22.14
2022-09-12T13:03:38.473Z,22.49
2022-09-12T13:06:07.375Z,23.09
2022-09-12T13:08:39.848Z,23.47
2022-09-12T13:11:07.426Z,24.10
2022-09-12T13:13:53.103Z,24.32
2022-09-12T13:16:40.619Z,24.36
2022-09-12T13:19:18.408Z,24.35
2022-09-12T13:22:08.930Z,24.94
2022-09-12T13:24:44.965Z,24.83
2022-09-12T13:27:24.199Z,24.43
2022-09-12T13:30:18.702Z,23.89
2022-09-12T13:32:48.277Z,23.50
2022-09-12T13:35:21.916Z,23.02
2022-09-12T13:37:54.813Z,23.02
2022-09-12T13:40:34.821Z,23.03
2022-09-12T13:43:09.388Z,23.21
2022-09-12T13:45:38.764Z,23.17
2022-09-12T13:48:06.736Z,23.14
2022-09-12T13:50:57.857Z,23.31
2022-09-12T13:53:26.919Z,23.54
2022-09-12T13:55:56.874Z,23.39
2022-09-12T13:58:34.688Z,23.60
2022-09-12T14:01:08.603Z,23.61
2022-09-12T14:04:13.295Z,23.55
2022-09-12T14:06:51.828Z,23.62
2022-09-12T14:09:25.279Z,23.65
2022-09-12T14:11:53.067Z,23.89
2022-09-12T14:14:23.012Z,23.62
2022-09-12T14:16:50.433Z,23.28
2022-09-12T14:19:26.301Z,23.71
2022-09-12T14:21:54.129Z,23.85
2022-09-12T14:24:23.457Z,23.81
2022-09-12T14:26:57.393Z,23.88
2022-09-12T14:29:25.494Z,23.84
2022-09-12T14:32:03.540Z,24.05
2022-09-12T14:34:31.539Z,23.97
2022-09-12T14:36:58.820Z,24.01
2022-09-12T14:39:34.011Z,23.94
2022-09-12T14:42:08.285Z,23.65
2022-09-12T14:44:35.908Z,23.50
2022-09-12T14:47:20.896Z,23.26
2022-09-12T14:49:51.805Z,23.30
2022-09-12T14:52:26.840Z,23.33
2022-09-12T14:55:01.033Z,23.49
2022-09-12T14:57:28.364Z,23.89
2022-09-12T15:00:06.389Z,24.02
2022-09-12T15:02:34.542Z,23.82
2022-09-12T15:05:04.968Z,23.86
2022-09-12T15:07:37.069Z,23.81
2022-09-12T15:10:22.960Z,23.65
2022-09-12T15:12:50.506Z,23.79
2022-09-12T15:15:19.538Z,24.04
2022-09-12T15:17:47.034Z,23.91
2022-09-12T15:20:15.016Z,24.29
2022-09-12T15:22:43.009Z,24.39
2022-09-12T15:25:10.638Z,24.41
2022-09-12T15:27:41.168Z,24.16
2022-09-12T15:30:10.418Z,24.13
2022-09-12T15:32:38.109Z,23.95
2022-09-12T15:35:20.697Z,23.81
2022-09-12T15:37:48.320Z,23.62
2022-09-12T15:40:15.880Z,23.61
2022-09-12T15:42:43.983Z,23.44
2022-09-12T15:45:17.882Z,23.31
2022-09-12T15:47:45.633Z,23.17
2022-09-12T15:50:13.483Z,22.99
2022-09-12T15:52:41.713Z,22.82
2022-09-12T15:55:20.166Z,22.82
2022-09-12T15:57:48.013Z,22.73
2022-09-12T16:00:16.125Z,22.63
2022-09-12T16:02:44.856Z,22.48
2022-09-12T16:05:20.897Z,22.51
2022-09-12T16:07:49.435Z,22.48
2022-09-12T16:10:18.370Z,22.41
2022-09-12T16:12:46.497Z,22.41
2022-09-12T16:15:15.661Z,22.27
2022-09-12T16:17:46.856Z,22.33
2022-09-12T16:20:14.671Z,22.22
2022-09-12T16:22:45.423Z,22.31
2022-09-12T16:25:13.014Z,22.25
2022-09-12T16:27:40.988Z,22.21
2022-09-12T16:30:09.348Z,22.18
2022-09-12T16:32:36.641Z,22.03
2022-09-12T16:35:04.574Z,22.07
2022-09-12T16:37:34.751Z,21.94
2022-09-12T16:40:03.892Z,22.01
2022-09-12T16:42:31.785Z,22.01
2022-09-12T16:44:59.233Z,22.01
2022-09-12T16:47:26.939Z,21.82
2022-09-12T16:49:54.379Z,21.73
2022-09-12T16:52:21.976Z,21.84
2022-09-12T16:54:49.492Z,21.77
2022-09-12T16:57:17.115Z,21.65
2022-09-12T16:59:45.175Z,21.69
2022-09-12T17:02:13.702Z,21.69
2022-09-12T17:04:41.621Z,21.77
2022-09-12T17:07:09.234Z,21.60
2022-09-12T17:09:36.795Z,21.56
2022-09-12T17:12:04.712Z,21.41
2022-09-12T17:14:32.113Z,21.47
2022-09-12T17:16:59.447Z,21.26
2022-09-12T17:19:28.261Z,21.25
2022-09-12T17:21:56.735Z,21.25
2022-09-12T17:24:24.966Z,21.28
2022-09-12T17:26:52.451Z,21.38
2022-09-12T17:29:20.132Z,21.24
2022-09-12T17:31:47.376Z,21.28
2022-09-12T17:34:15.252Z,21.25
2022-09-12T17:36:45.680Z,21.22
2022-09-12T17:39:13.174Z,21.21
2022-09-12T17:41:41.826Z,21.15
2022-09-12T17:44:11.110Z,21.09
2022-09-12T17:46:38.742Z,21.04
2022-09-12T17:49:08.933Z,20.95
2022-09-12T17:51:36.292Z,20.83
2022-09-12T17:54:08.704Z,20.83
2022-09-12T17:56:37.109Z,20.71
2022-09-12T17:59:04.700Z,20.64
2022-09-12T18:01:51.185Z,20.67
2022-09-12T18:04:19.993Z,20.63
2022-09-12T18:06:50.309Z,20.58
2022-09-12T18:09:19.688Z,20.60
2022-09-12T18:11:48.257Z,20.71
2022-09-12T18:14:15.908Z,20.64
2022-09-12T18:16:43.394Z,20.53
2022-09-12T18:19:11.077Z,20.49
2022-09-12T18:21:38.469Z,20.41
2022-09-12T18:24:06.089Z,20.34
2022-09-12T18:26:33.404Z,20.34
2022-09-12T18:29:00.779Z,20.33
2022-09-12T18:31:29.149Z,20.34
2022-09-12T18:33:56.762Z,20.32
2022-09-12T18:36:24.196Z,20.25
2022-09-12T18:38:51.524Z,20.20
2022-09-12T18:41:20.416Z,20.13
2022-09-12T18:43:48.191Z,20.13
2022-09-12T18:46:18.934Z,20.12
2022-09-12T18:48:46.472Z,20.15
2022-09-12T18:51:21.554Z,20.10
2022-09-12T18:53:53.699Z,20.00
2022-09-12T18:56:21.362Z,19.85
2022-09-12T18:58:53.185Z,19.82
2022-09-12T19:01:24.926Z,19.75
2022-09-12T19:03:52.690Z,19.72
2022-09-12T19:06:23.745Z,19.69
2022-09-12T19:08:51.358Z,19.75
2022-09-12T19:11:18.758Z,19.82
2022-09-12T19:13:46.977Z,19.77
2022-09-12T19:16:16.027Z,19.75
2022-09-12T19:18:43.638Z,19.67
2022-09-12T19:21:15.336Z,19.61
2022-09-12T19:23:42.682Z,19.58
2022-09-12T19:26:11.009Z,19.60
2022-09-12T19:28:38.260Z,19.57
2022-09-12T19:31:06.697Z,19.51
2022-09-12T19:33:34.214Z,19.35
2022-09-12T19:36:03.368Z,19.37
2022-09-12T19:38:30.745Z,19.48
2022-09-12T19:40:58.757Z,19.65
2022-09-12T19:43:26.253Z,19.48
2022-09-12T19:45:54.793Z,19.37
2022-09-12T19:48:22.181Z,19.28
2022-09-12T19:50:49.512Z,19.13
2022-09-12T19:53:17.216Z,19.04
2022-09-12T19:55:45.277Z,18.93
2022-09-12T19:58:13.431Z,18.90
2022-09-12T20:00:40.915Z,18.83
2022-09-12T20:03:08.694Z,18.85
2022-09-12T20:05:39.540Z,18.77
2022-09-12T20:08:09.901Z,18.75
2022-09-12T20:10:37.412Z,18.76
2022-09-12T20:13:05.478Z,18.66
2022-09-12T20:15:32.789Z,18.62
2022-09-12T20:18:00.047Z,18.59
2022-09-12T20:20:27.639Z,18.62
2022-09-12T20:22:54.936Z,18.56
2022-09-12T20:25:22.182Z,18.49
2022-09-12T20:27:49.527Z,18.37
2022-09-12T20:30:17.148Z,18.41
2022-09-12T20:32:44.389Z,18.38
2022-09-12T20:35:11.660Z,18.41
2022-09-12T20:37:40.545Z,18.31
2022-09-12T20:40:08.570Z,18.24
2022-09-12T20:42:36.090Z,18.20
2022-09-12T20:45:04.563Z,18.27
2022-09-12T20:47:31.883Z,18.23
2022-09-12T20:49:59.158Z,18.15
2022-09-12T20:52:26.458Z,18.11
2022-09-12T20:54:53.674Z,18.08
2022-09-12T20:57:20.942Z,18.05
2022-09-12T20:59:48.165Z,18.04
2022-09-12T21:02:15.718Z,17.98
2022-09-12T21:04:43.159Z,18.04
2022-09-12T21:07:10.581Z,17.91
2022-09-12T21:09:37.789Z,17.86
2022-09-12T21:12:05.385Z,17.76
2022-09-12T21:14:32.690Z,17.89
2022-09-12T21:17:00.007Z,17.77
2022-09-12T21:19:27.303Z,17.66
2022-09-12T21:21:54.636Z,17.47
2022-09-12T21:24:21.847Z,17.45
2022-09-12T21:26:49.049Z,17.43
2022-09-12T21:29:16.489Z,17.57
2022-09-12T21:31:44.097Z,17.57
2022-09-12T21:34:11.307Z,17.45
2022-09-12T21:36:38.775Z,17.40
2022-09-12T21:39:06.078Z,17.32
2022-09-12T21:41:33.503Z,17.29
2022-09-12T21:44:00.881Z,17.21
2022-09-12T21:46:28.247Z,16.98
2022-09-12T21:48:55.540Z,16.97
2022-09-12T21:51:23.037Z,16.88
2022-09-12T21:53:50.349Z,17.00
2022-09-12T21:56:17.593Z,16.94
2022-09-12T21:58:45.141Z,16.94
2022-09-12T22:01:12.713Z,17.04
2022-09-12T22:03:40.370Z,17.03
2022-09-12T22:06:07.950Z,17.07
2022-09-12T22:08:35.497Z,17.03
2022-09-12T22:11:04.687Z,16.97
2022-09-12T22:13:32.375Z,16.98
2022-09-12T22:16:01.418Z,16.94
2022-09-12T22:18:29.675Z,16.94
2022-09-12T22:21:05.371Z,16.95
2022-09-12T22:23:51.327Z,16.92
2022-09-12T22:26:18.694Z,16.60
2022-09-12T22:28:47.290Z,16.52
2022-09-12T22:31:14.932Z,16.42
2022-09-12T22:33:42.310Z,16.47
2022-09-12T22:36:10.122Z,16.46
2022-09-12T22:38:37.417Z,16.43
2022-09-12T22:41:06.145Z,16.47
2022-09-12T22:43:34.089Z,16.53
2022-09-12T22:46:01.646Z,16.70
2022-09-12T22:48:28.893Z,16.77
2022-09-12T22:50:56.151Z,16.63
2022-09-12T22:53:23.406Z,16.56
2022-09-12T22:55:50.761Z,16.57
2022-09-12T22:58:18.111Z,16.57
2022-09-12T23:00:50.214Z,16.59
2022-09-12T23:03:18.178Z,16.57
2022-09-12T23:05:46.738Z,16.53
2022-09-12T23:08:14.970Z,16.46
2022-09-12T23:10:42.440Z,16.40
2022-09-12T23:13:09.956Z,16.43
2022-09-12T23:15:37.285Z,16.52
2022-09-12T23:18:05.220Z,16.64
2022-09-12T23:20:32.658Z,16.63
2022-09-12T23:23:00.116Z,16.61
2022-09-12T23:25:27.521Z,16.43
2022-09-12T23:27:54.813Z,16.34
2022-09-12T23:30:21.987Z,16.42
2022-09-12T23:32:49.360Z,16.53
2022-09-12T23:35:19.461Z,16.61
2022-09-12T23:37:47.311Z,16.52
2022-09-12T23:40:14.597Z,16.40
2022-09-12T23:42:41.946Z,16.26
2022-09-12T23:45:10.387Z,16.18
2022-09-12T23:47:37.687Z,16.10
2022-09-12T23:50:05.179Z,16.19
2022-09-12T23:52:32.434Z,16.22
2022-09-12T23:54:59.834Z,16.42
2022-09-12T23:57:27.149Z,16.47
2022-09-12T23:59:54.308Z,16.42
